createdAt,value
2022-12-31T00:01:34.104Z,97399.63
2022-12-31T00:03:42.611Z,97397.94
2022-12-31T00:05:50.379Z,97388.28
2022-12-31T00:07:58.190Z,97406.44
2022-12-31T00:10:06.843Z,97408.28
2022-12-31T00:12:17.195Z,97414.34
2022-12-31T00:14:24.938Z,97419.81
2022-12-31T00:16:36.599Z,97414.59
2022-12-31T00:18:47.284Z,97430.03
2022-12-31T00:20:55.227Z,97418.41
2022-12-31T00:23:03.394Z,97429.78
2022-12-31T00:25:12.559Z,97419.47
2022-12-31T00:27:22.981Z,97430.03
2022-12-31T00:29:30.721Z,97427.47
2022-12-31T00:31:40.415Z,97429.53
2022-12-31T00:33:48.556Z,97432.00
2022-12-31T00:35:56.345Z,97438.41
2022-12-31T00:38:04.038Z,97447.28
2022-12-31T00:40:14.664Z,97453.72
2022-12-31T00:42:25.225Z,97449.84
2022-12-31T00:44:33.967Z,97454.91
2022-12-31T00:48:48.890Z,97450.91
2022-12-31T00:50:57.740Z,97455.53
2022-12-31T00:53:05.510Z,97458.22
2022-12-31T00:55:13.182Z,97456.47
2022-12-31T00:57:20.977Z,97465.59
2022-12-31T00:59:31.304Z,97477.50
2022-12-31T01:01:40.966Z,97477.88
2022-12-31T01:03:50.511Z,97477.88
2022-12-31T01:06:01.703Z,97480.63
2022-12-31T01:08:09.523Z,97488.03
2022-12-31T01:10:38.076Z,97491.31
2022-12-31T01:12:45.869Z,97489.59
2022-12-31T01:14:56.262Z,97487.91
2022-12-31T01:17:03.957Z,97490.44
2022-12-31T01:19:15.597Z,97493.81
2022-12-31T01:21:24.745Z,97498.06
2022-12-31T01:23:32.676Z,97495.38
2022-12-31T01:25:41.954Z,97494.91
2022-12-31T01:27:49.680Z,97504.81
2022-12-31T01:29:59.985Z,97512.16
2022-12-31T01:32:08.466Z,97517.00
2022-12-31T01:34:16.264Z,97515.06
2022-12-31T01:36:27.019Z,97513.50
2022-12-31T01:38:35.854Z,97514.31
2022-12-31T01:40:44.219Z,97515.25
2022-12-31T01:42:57.270Z,97517.81
2022-12-31T01:45:13.831Z,97513.38
2022-12-31T01:47:32.067Z,97519.16
2022-12-31T01:49:45.073Z,97515.91
2022-12-31T01:51:56.332Z,97517.75
2022-12-31T01:54:06.453Z,97517.94
2022-12-31T01:56:14.278Z,97520.03
2022-12-31T01:58:25.850Z,97526.09
2022-12-31T02:00:36.331Z,97528.94
2022-12-31T02:02:44.254Z,97524.16
2022-12-31T02:04:53.908Z,97531.66
2022-12-31T02:07:03.930Z,97538.91
2022-12-31T02:09:12.395Z,97535.56
2022-12-31T02:11:25.083Z,97525.34
2022-12-31T02:13:32.839Z,97524.56
2022-12-31T02:15:53.718Z,97527.22
2022-12-31T02:18:09.078Z,97527.91
2022-12-31T02:20:38.626Z,97536.22
2022-12-31T02:23:04.412Z,97529.00
2022-12-31T02:25:39.577Z,97540.50
2022-12-31T02:27:56.305Z,97540.66
2022-12-31T02:30:20.017Z,97552.91
2022-12-31T02:32:34.771Z,97547.28
2022-12-31T02:34:50.586Z,97555.19
2022-12-31T02:37:01.913Z,97554.91
2022-12-31T02:39:12.139Z,97563.41
2022-12-31T02:41:34.049Z,97564.25
2022-12-31T02:43:49.069Z,97560.41
2022-12-31T02:46:08.502Z,97567.94
2022-12-31T02:48:29.790Z,97558.41
2022-12-31T02:50:55.787Z,97561.13
2022-12-31T02:53:17.473Z,97564.94
2022-12-31T02:55:34.952Z,97569.97
2022-12-31T02:57:49.830Z,97568.88
2022-12-31T03:00:14.759Z,97562.00
2022-12-31T03:02:24.743Z,97563.41
2022-12-31T03:04:36.303Z,97559.66
2022-12-31T03:06:45.854Z,97560.28
2022-12-31T03:09:07.826Z,97563.44
2022-12-31T03:11:35.619Z,97564.16
2022-12-31T03:13:40.783Z,97552.91
2022-12-31T03:15:48.500Z,97558.41
2022-12-31T03:18:04.540Z,97560.44
2022-12-31T03:20:25.243Z,97563.94
2022-12-31T03:22:31.119Z,97560.56
2022-12-31T03:24:51.313Z,97553.72
2022-12-31T03:26:59.016Z,97547.13
2022-12-31T03:29:06.792Z,97559.78
2022-12-31T03:31:14.587Z,97554.78
2022-12-31T03:33:25.151Z,97566.03
2022-12-31T03:35:35.611Z,97572.63
2022-12-31T03:37:43.892Z,97575.06
2022-12-31T03:39:51.587Z,97587.13
2022-12-31T03:41:59.415Z,97580.59
2022-12-31T03:44:07.446Z,97589.91
2022-12-31T03:46:15.298Z,97586.88
2022-12-31T03:48:26.339Z,97590.44
2022-12-31T03:50:34.615Z,97593.59
2022-12-31T03:52:42.816Z,97595.50
2022-12-31T03:54:50.636Z,97587.28
2022-12-31T03:57:00.221Z,97597.16
2022-12-31T03:59:08.271Z,97603.97
2022-12-31T04:01:16.076Z,97602.34
2022-12-31T04:03:26.585Z,97604.56
2022-12-31T04:05:34.353Z,97608.09
2022-12-31T04:07:42.741Z,97609.78
2022-12-31T04:09:50.543Z,97611.47
2022-12-31T04:11:58.401Z,97619.59
2022-12-31T04:14:06.107Z,97619.34
2022-12-31T04:16:14.076Z,97618.00
2022-12-31T04:18:21.963Z,97618.25
2022-12-31T04:20:32.313Z,97610.84
2022-12-31T04:22:40.484Z,97613.78
2022-12-31T04:24:48.226Z,97609.03
2022-12-31T04:26:55.995Z,97604.69
2022-12-31T04:29:03.797Z,97618.66
2022-12-31T04:31:11.787Z,97631.03
2022-12-31T04:33:19.508Z,97626.19
2022-12-31T04:35:27.263Z,97618.44
2022-12-31T04:37:37.621Z,97607.84
2022-12-31T04:39:45.460Z,97608.47
2022-12-31T04:41:53.276Z,97616.00
2022-12-31T04:44:02.347Z,97621.09
2022-12-31T04:46:10.180Z,97631.88
2022-12-31T04:48:18.008Z,97633.34
2022-12-31T04:50:25.938Z,97639.66
2022-12-31T04:52:37.167Z,97638.69
2022-12-31T04:54:52.643Z,97642.97
2022-12-31T04:57:00.379Z,97638.34
2022-12-31T04:59:09.003Z,97644.78
2022-12-31T05:01:17.340Z,97642.47
2022-12-31T05:03:28.921Z,97642.13
2022-12-31T05:05:42.905Z,97643.69
2022-12-31T05:07:50.582Z,97639.81
2022-12-31T05:10:00.950Z,97650.28
2022-12-31T05:12:09.311Z,97654.00
2022-12-31T05:14:17.367Z,97656.81
2022-12-31T05:16:25.141Z,97653.03
2022-12-31T05:18:33.734Z,97650.50
2022-12-31T05:20:41.590Z,97649.06
2022-12-31T05:22:49.353Z,97646.75
2022-12-31T05:24:57.194Z,97641.16
2022-12-31T05:27:07.562Z,97645.41
2022-12-31T05:29:15.351Z,97643.44
2022-12-31T05:31:23.104Z,97646.84
2022-12-31T05:33:30.884Z,97641.72
2022-12-31T05:35:38.692Z,97641.47
2022-12-31T05:37:47.071Z,97635.66
2022-12-31T05:39:54.824Z,97640.28
2022-12-31T05:42:02.582Z,97643.78
2022-12-31T05:44:13.467Z,97636.78
2022-12-31T05:46:21.242Z,97635.78
2022-12-31T05:48:29.041Z,97629.47
2022-12-31T05:50:36.855Z,97620.47
2022-12-31T05:52:47.647Z,97623.03
2022-12-31T05:54:55.645Z,97620.13
2022-12-31T05:57:03.857Z,97623.63
2022-12-31T05:59:14.288Z,97640.72
2022-12-31T06:01:22.118Z,97640.50
2022-12-31T06:03:29.955Z,97637.31
2022-12-31T06:05:37.750Z,97637.69
2022-12-31T06:07:45.529Z,97638.94
2022-12-31T06:09:53.293Z,97642.44
2022-12-31T06:12:01.117Z,97642.81
2022-12-31T06:14:08.947Z,97647.66
2022-12-31T06:16:19.273Z,97657.97
2022-12-31T06:18:27.153Z,97659.41
2022-12-31T06:20:34.909Z,97665.00
2022-12-31T06:22:42.726Z,97677.59
2022-12-31T06:24:50.531Z,97674.38
2022-12-31T06:26:58.223Z,97671.19
2022-12-31T06:29:06.096Z,97670.44
2022-12-31T06:31:15.964Z,97671.91
2022-12-31T06:33:26.331Z,97677.19
2022-12-31T06:35:34.105Z,97671.91
2022-12-31T06:37:41.925Z,97674.72
2022-12-31T06:39:49.707Z,97681.91
2022-12-31T06:41:57.650Z,97676.28
2022-12-31T06:44:05.371Z,97676.16
2022-12-31T06:46:16.194Z,97687.84
2022-12-31T06:48:26.595Z,97703.38
2022-12-31T06:50:34.429Z,97718.09
2022-12-31T06:52:42.150Z,97707.75
2022-12-31T06:54:51.250Z,97690.28
2022-12-31T06:56:59.755Z,97699.66
2022-12-31T06:59:08.257Z,97694.44
2022-12-31T07:01:33.402Z,97703.56
2022-12-31T07:03:54.177Z,97694.44
2022-12-31T07:06:12.084Z,97691.53
2022-12-31T07:08:32.938Z,97690.28
2022-12-31T07:10:51.945Z,97695.41
2022-12-31T07:13:13.091Z,97704.66
2022-12-31T07:15:37.065Z,97695.91
2022-12-31T07:17:55.978Z,97707.94
2022-12-31T07:20:10.073Z,97721.25
2022-12-31T07:22:20.743Z,97711.91
2022-12-31T07:24:29.673Z,97715.91
2022-12-31T07:27:03.369Z,97704.97
2022-12-31T07:29:19.157Z,97704.88
2022-12-31T07:31:37.514Z,97715.06
2022-12-31T07:33:54.452Z,97716.41
2022-12-31T07:36:20.011Z,97722.91
2022-12-31T07:38:37.558Z,97720.94
2022-12-31T07:40:57.947Z,97726.91
2022-12-31T07:43:13.317Z,97724.81
2022-12-31T07:45:27.392Z,97733.59
2022-12-31T07:47:35.811Z,97726.56
2022-12-31T07:49:45.861Z,97734.81
2022-12-31T07:51:57.401Z,97740.53
2022-12-31T07:54:10.177Z,97735.97
2022-12-31T07:56:21.339Z,97748.47
2022-12-31T07:58:42.901Z,97748.47
2022-12-31T08:00:51.546Z,97747.97
2022-12-31T08:03:19.729Z,97755.75
2022-12-31T08:05:32.813Z,97753.31
2022-12-31T08:07:52.396Z,97754.31
2022-12-31T08:10:12.556Z,97758.19
2022-12-31T08:12:24.569Z,97768.53
2022-12-31T08:14:33.464Z,97764.28
2022-12-31T08:16:42.007Z,97765.72
2022-12-31T08:18:50.454Z,97761.00
2022-12-31T08:21:11.323Z,97761.59
2022-12-31T08:23:31.270Z,97768.38
2022-12-31T08:25:50.571Z,97768.75
2022-12-31T08:28:09.848Z,97771.19
2022-12-31T08:30:19.171Z,97767.41
2022-12-31T08:32:32.833Z,97763.03
2022-12-31T08:34:50.737Z,97766.19
2022-12-31T08:37:06.020Z,97761.81
2022-12-31T08:39:28.397Z,97764.09
2022-12-31T08:41:48.691Z,97763.72
2022-12-31T08:44:08.929Z,97775.50
2022-12-31T08:46:26.087Z,97772.44
2022-12-31T08:48:40.414Z,97769.53
2022-12-31T08:50:48.786Z,97768.06
2022-12-31T08:52:57.808Z,97785.97
2022-12-31T08:55:09.287Z,97788.00
2022-12-31T08:57:26.910Z,97794.84
2022-12-31T08:59:45.209Z,97801.41
2022-12-31T09:02:31.496Z,97804.34
2022-12-31T09:04:56.006Z,97798.09
2022-12-31T09:07:05.882Z,97813.31
2022-12-31T09:09:22.897Z,97812.47
2022-12-31T09:11:43.171Z,97813.78
2022-12-31T09:14:16.140Z,97804.34
2022-12-31T09:16:33.053Z,97807.00
2022-12-31T09:18:44.369Z,97808.53
2022-12-31T09:20:52.641Z,97808.63
2022-12-31T09:23:02.608Z,97805.56
2022-12-31T09:25:16.602Z,97811.19
2022-12-31T09:27:33.260Z,97817.34
2022-12-31T09:29:51.680Z,97818.28
2022-12-31T09:32:12.109Z,97819.50
2022-12-31T09:34:27.132Z,97821.19
2022-12-31T09:36:39.379Z,97824.44
2022-12-31T09:38:54.810Z,97829.09
2022-12-31T09:41:16.378Z,97829.59
2022-12-31T09:43:57.352Z,97829.47
2022-12-31T09:46:41.306Z,97838.59
2022-12-31T09:49:18.981Z,97840.16
2022-12-31T09:51:33.389Z,97847.41
2022-12-31T09:54:06.987Z,97850.50
2022-12-31T09:56:22.532Z,97859.00
2022-12-31T09:58:46.934Z,97857.59
2022-12-31T10:00:59.121Z,97865.47
2022-12-31T10:03:33.381Z,97857.44
2022-12-31T10:05:57.473Z,97845.34
2022-12-31T10:08:17.462Z,97839.66
2022-12-31T10:10:33.128Z,97828.91
2022-12-31T10:13:09.025Z,97825.28
2022-12-31T10:15:53.175Z,97817.47
2022-12-31T10:18:10.044Z,97821.16
2022-12-31T10:20:40.103Z,97814.22
2022-12-31T10:23:23.975Z,97814.38
2022-12-31T10:25:47.065Z,97813.31
2022-12-31T10:28:03.083Z,97813.22
2022-12-31T10:30:18.278Z,97803.63
2022-12-31T10:32:40.438Z,97798.25
2022-12-31T10:34:58.570Z,97809.41
2022-12-31T10:37:14.481Z,97806.53
2022-12-31T10:39:34.262Z,97809.41
2022-12-31T10:42:03.591Z,97804.69
2022-12-31T10:44:37.810Z,97800.16
2022-12-31T10:47:14.887Z,97811.47
2022-12-31T10:49:52.352Z,97793.91
2022-12-31T10:52:30.008Z,97784.13
2022-12-31T10:54:59.651Z,97784.72
2022-12-31T10:57:42.562Z,97785.56
2022-12-31T11:00:16.731Z,97781.34
2022-12-31T11:02:52.781Z,97776.38
2022-12-31T11:05:27.265Z,97773.69
2022-12-31T11:08:09.668Z,97774.38
2022-12-31T11:10:39.743Z,97776.78
2022-12-31T11:13:10.332Z,97776.50
2022-12-31T11:15:34.364Z,97772.28
2022-12-31T11:17:53.333Z,97778.94
2022-12-31T11:20:15.811Z,97767.50
2022-12-31T11:22:40.149Z,97771.56
2022-12-31T11:25:16.192Z,97773.75
2022-12-31T11:27:37.685Z,97762.69
2022-12-31T11:29:55.977Z,97763.72
2022-12-31T11:32:12.159Z,97760.47
2022-12-31T11:34:56.511Z,97766.00
2022-12-31T11:37:23.185Z,97759.78
2022-12-31T11:39:50.171Z,97750.13
2022-12-31T11:42:14.738Z,97755.09
2022-12-31T11:44:35.181Z,97742.66
2022-12-31T11:47:00.449Z,97750.97
2022-12-31T11:49:23.820Z,97738.38
2022-12-31T11:51:53.437Z,97745.88
2022-12-31T11:54:36.932Z,97738.97
2022-12-31T11:56:50.080Z,97737.81
2022-12-31T11:59:06.170Z,97737.22
2022-12-31T12:01:23.189Z,97735.13
2022-12-31T12:03:38.766Z,97733.28
2022-12-31T12:05:46.637Z,97734.13
2022-12-31T12:07:55.931Z,97734.00
2022-12-31T12:10:07.316Z,97731.00
2022-12-31T12:12:16.559Z,97729.22
2022-12-31T12:14:37.387Z,97727.91
2022-12-31T12:16:48.370Z,97731.84
2022-12-31T12:19:06.418Z,97735.25
2022-12-31T12:21:18.790Z,97729.63
2022-12-31T12:23:28.506Z,97725.09
2022-12-31T12:25:41.677Z,97729.16
2022-12-31T12:27:49.834Z,97736.78
2022-12-31T12:30:00.333Z,97731.44
2022-12-31T12:32:10.729Z,97722.50
2022-12-31T12:34:26.169Z,97728.97
2022-12-31T12:36:34.987Z,97730.53
2022-12-31T12:38:43.091Z,97716.84
2022-12-31T12:40:59.827Z,97724.06
2022-12-31T12:43:07.588Z,97709.28
2022-12-31T12:45:22.593Z,97717.69
2022-12-31T12:47:31.529Z,97722.47
2022-12-31T12:49:45.506Z,97715.00
2022-12-31T12:52:09.343Z,97720.66
2022-12-31T12:54:33.535Z,97709.31
2022-12-31T12:56:52.078Z,97713.84
2022-12-31T12:59:25.582Z,97718.19
2022-12-31T13:01:43.122Z,97719.09
2022-12-31T13:04:38.152Z,97704.34
2022-12-31T13:07:01.416Z,97717.94
2022-12-31T13:09:24.873Z,97707.47
2022-12-31T13:11:42.136Z,97712.06
2022-12-31T13:13:57.152Z,97707.66
2022-12-31T13:16:11.864Z,97707.81
2022-12-31T13:18:34.069Z,97708.66
2022-12-31T13:20:47.949Z,97709.94
2022-12-31T13:23:05.921Z,97703.72
2022-12-31T13:25:27.006Z,97699.16
2022-12-31T13:27:38.168Z,97688.31
2022-12-31T13:29:48.907Z,97696.78
2022-12-31T13:31:58.865Z,97688.06
2022-12-31T13:34:17.019Z,97687.91
2022-12-31T13:36:28.030Z,97695.28
2022-12-31T13:38:39.787Z,97689.75
2022-12-31T13:40:52.572Z,97685.75
2022-12-31T13:43:05.102Z,97679.13
2022-12-31T13:45:17.813Z,97676.16
2022-12-31T13:47:36.077Z,97667.09
2022-12-31T13:49:58.012Z,97668.22
2022-12-31T13:52:16.885Z,97676.69
2022-12-31T13:54:35.432Z,97669.09
2022-12-31T13:56:46.133Z,97679.25
2022-12-31T13:58:59.773Z,97678.69
2022-12-31T14:01:14.949Z,97675.59
2022-12-31T14:03:28.384Z,97671.34
2022-12-31T14:05:45.673Z,97666.66
2022-12-31T14:07:56.386Z,97674.28
2022-12-31T14:10:04.219Z,97664.81
2022-12-31T14:12:28.530Z,97659.72
2022-12-31T14:14:50.142Z,97667.59
2022-12-31T14:17:05.202Z,97663.97
2022-12-31T14:19:28.972Z,97665.34
2022-12-31T14:21:50.007Z,97670.28
2022-12-31T14:24:06.477Z,97669.13
2022-12-31T14:26:26.099Z,97667.84
2022-12-31T14:28:46.475Z,97671.47
2022-12-31T14:30:59.801Z,97675.94
2022-12-31T14:33:27.290Z,97664.94
2022-12-31T14:35:58.683Z,97683.06
2022-12-31T14:38:25.774Z,97675.94
2022-12-31T14:40:53.229Z,97680.59
2022-12-31T14:43:13.036Z,97680.69
2022-12-31T14:45:30.408Z,97682.78
2022-12-31T14:47:52.457Z,97689.25
2022-12-31T14:50:07.774Z,97697.72
2022-12-31T14:52:28.330Z,97692.41
2022-12-31T14:54:40.856Z,97695.63
2022-12-31T14:56:48.867Z,97698.72
2022-12-31T14:58:58.931Z,97697.75
2022-12-31T15:01:26.116Z,97690.81
2022-12-31T15:03:45.007Z,97695.47
2022-12-31T15:06:05.292Z,97692.34
2022-12-31T15:08:29.569Z,97692.13
2022-12-31T15:10:50.385Z,97693.72
2022-12-31T15:13:06.157Z,97686.16
2022-12-31T15:15:33.331Z,97698.25
2022-12-31T15:17:53.908Z,97698.94
2022-12-31T15:20:22.478Z,97695.94
2022-12-31T15:22:40.353Z,97705.00
2022-12-31T15:24:49.829Z,97708.06
2022-12-31T15:27:02.540Z,97703.22
2022-12-31T15:29:21.825Z,97712.25
2022-12-31T15:31:30.456Z,97711.25
2022-12-31T15:33:42.407Z,97709.31
2022-12-31T15:35:53.984Z,97709.88
2022-12-31T15:38:03.978Z,97713.22
2022-12-31T15:40:25.106Z,97706.28
2022-12-31T15:42:49.836Z,97700.88
2022-12-31T15:45:03.633Z,97707.06
2022-12-31T15:47:20.534Z,97704.72
2022-12-31T15:49:33.213Z,97707.00
2022-12-31T15:51:48.015Z,97698.38
2022-12-31T15:54:00.897Z,97709.97
2022-12-31T15:56:12.269Z,97710.47
2022-12-31T15:58:25.563Z,97699.41
2022-12-31T16:00:48.600Z,97709.75
2022-12-31T16:02:57.516Z,97709.50
2022-12-31T16:05:05.548Z,97704.50
2022-12-31T16:07:15.161Z,97711.69
2022-12-31T16:09:26.577Z,97712.94
2022-12-31T16:11:38.355Z,97712.38
2022-12-31T16:13:51.575Z,97717.25
2022-12-31T16:16:04.712Z,97717.66
2022-12-31T16:18:20.621Z,97721.69
2022-12-31T16:20:33.707Z,97726.78
2022-12-31T16:22:43.139Z,97725.97
2022-12-31T16:25:29.048Z,97728.66
2022-12-31T16:27:26.742Z,97723.44
2022-12-31T16:29:39.339Z,97725.63
2022-12-31T16:31:48.732Z,97721.97
2022-12-31T16:34:06.235Z,97718.56
2022-12-31T16:36:23.807Z,97727.22
2022-12-31T16:38:50.459Z,97728.63
2022-12-31T16:41:11.557Z,97720.75
2022-12-31T16:43:29.087Z,97725.09
2022-12-31T16:45:39.876Z,97725.00
2022-12-31T16:47:48.248Z,97734.50
2022-12-31T16:50:04.168Z,97727.91
2022-12-31T16:52:30.758Z,97724.75
2022-12-31T16:54:41.700Z,97721.97
2022-12-31T16:56:49.823Z,97732.66
2022-12-31T16:59:04.034Z,97729.75
2022-12-31T17:01:20.021Z,97734.00
2022-12-31T17:03:31.104Z,97739.13
2022-12-31T17:05:59.084Z,97734.38
2022-12-31T17:08:28.112Z,97739.59
2022-12-31T17:10:39.154Z,97736.31
2022-12-31T17:15:32.267Z,97738.28
2022-12-31T17:17:44.217Z,97745.06
2022-12-31T17:19:54.479Z,97746.25
2022-12-31T17:22:08.722Z,97756.09
2022-12-31T17:24:17.260Z,97745.50
2022-12-31T17:26:28.445Z,97743.34
2022-12-31T17:28:44.709Z,97746.75
2022-12-31T17:30:55.914Z,97741.16
2022-12-31T17:33:08.183Z,97746.25
2022-12-31T17:35:30.707Z,97746.75
2022-12-31T17:37:38.521Z,97744.78
2022-12-31T17:39:52.132Z,97757.38
2022-12-31T17:42:00.956Z,97756.28
2022-12-31T17:44:08.866Z,97756.00
2022-12-31T17:46:19.607Z,97757.72
2022-12-31T17:48:34.531Z,97767.75
2022-12-31T17:50:50.593Z,97762.53
2022-12-31T17:53:02.421Z,97777.91
2022-12-31T17:55:11.732Z,97777.66
2022-12-31T17:57:33.534Z,97773.03
2022-12-31T17:59:41.383Z,97773.50
2022-12-31T18:01:50.062Z,97772.38
2022-12-31T18:04:00.645Z,97779.72
2022-12-31T18:06:14.527Z,97784.19
2022-12-31T18:08:24.516Z,97783.34
2022-12-31T18:10:34.632Z,97789.72
2022-12-31T18:12:43.587Z,97780.84
2022-12-31T18:14:51.467Z,97786.78
2022-12-31T18:16:59.342Z,97784.25
2022-12-31T18:19:45.740Z,97778.84
2022-12-31T18:21:46.437Z,97782.34
2022-12-31T18:26:03.666Z,97783.22
2022-12-31T18:28:12.371Z,97781.03
2022-12-31T18:30:20.754Z,97786.53
2022-12-31T18:32:31.989Z,97787.22
2022-12-31T18:34:42.949Z,97783.06
2022-12-31T18:36:50.772Z,97787.53
2022-12-31T18:38:58.976Z,97784.72
2022-12-31T18:41:07.282Z,97775.22
2022-12-31T18:43:18.980Z,97787.91
2022-12-31T18:45:26.907Z,97787.72
2022-12-31T18:47:37.751Z,97785.00
2022-12-31T18:49:48.833Z,97777.53
2022-12-31T18:51:57.240Z,97779.25
2022-12-31T18:54:05.802Z,97781.50
2022-12-31T18:56:15.716Z,97786.19
2022-12-31T18:58:23.593Z,97794.06
2022-12-31T19:00:31.368Z,97787.50
2022-12-31T19:02:39.241Z,97796.13
2022-12-31T19:04:49.876Z,97802.19
2022-12-31T19:06:58.604Z,97799.19
2022-12-31T19:09:23.684Z,97796.22
2022-12-31T19:11:35.905Z,97803.47
2022-12-31T19:13:43.922Z,97799.19
2022-12-31T19:15:54.120Z,97807.06
2022-12-31T19:18:02.414Z,97804.47
2022-12-31T19:20:13.861Z,97797.53
2022-12-31T19:22:21.678Z,97795.66
2022-12-31T19:24:30.518Z,97801.78
2022-12-31T19:26:43.281Z,97796.88
2022-12-31T19:28:52.824Z,97803.47
2022-12-31T19:31:00.637Z,97806.91
2022-12-31T19:33:23.667Z,97797.84
2022-12-31T19:35:37.453Z,97798.38
2022-12-31T19:37:46.838Z,97803.06
2022-12-31T19:39:54.680Z,97804.00
2022-12-31T19:42:03.749Z,97807.63
2022-12-31T19:44:17.545Z,97809.59
2022-12-31T19:46:25.410Z,97808.34
2022-12-31T19:48:33.332Z,97809.25
2022-12-31T19:50:45.923Z,97809.13
2022-12-31T19:52:55.843Z,97810.47
2022-12-31T19:55:03.703Z,97811.91
2022-12-31T19:57:11.544Z,97818.09
2022-12-31T19:59:19.404Z,97811.78
2022-12-31T20:01:27.920Z,97812.88
2022-12-31T20:03:36.253Z,97817.00
2022-12-31T20:05:48.014Z,97809.75
2022-12-31T20:07:55.806Z,97807.41
2022-12-31T20:10:04.074Z,97807.75
2022-12-31T20:12:11.808Z,97808.66
2022-12-31T20:14:19.649Z,97812.50
2022-12-31T20:16:29.969Z,97820.44
2022-12-31T20:18:39.675Z,97809.44
2022-12-31T20:20:55.837Z,97809.00
2022-12-31T20:23:03.945Z,97812.63
2022-12-31T20:25:12.364Z,97814.56
2022-12-31T20:27:20.196Z,97818.22
2022-12-31T20:29:27.982Z,97824.06
2022-12-31T20:31:35.856Z,97826.81
2022-12-31T20:33:44.494Z,97824.41
2022-12-31T20:35:54.861Z,97819.38
2022-12-31T20:38:02.655Z,97818.50
2022-12-31T20:40:12.262Z,97818.03
2022-12-31T20:42:20.094Z,97820.50
2022-12-31T20:44:27.928Z,97821.84
2022-12-31T20:46:36.054Z,97820.25
2022-12-31T20:48:44.295Z,97814.38
2022-12-31T20:51:00.253Z,97813.53
2022-12-31T20:53:07.986Z,97810.09
2022-12-31T20:55:18.179Z,97814.59
2022-12-31T20:57:30.160Z,97810.03
2022-12-31T20:59:41.170Z,97810.81
2022-12-31T21:02:20.014Z,97813.91
2022-12-31T21:04:17.119Z,97819.00
2022-12-31T21:06:28.271Z,97818.06
2022-12-31T21:08:37.307Z,97819.25
2022-12-31T21:10:45.363Z,97823.31
2022-12-31T21:12:53.627Z,97823.63
2022-12-31T21:15:02.544Z,97828.22
2022-12-31T21:17:10.273Z,97833.31
2022-12-31T21:19:18.014Z,97838.13
2022-12-31T21:21:28.484Z,97835.16
2022-12-31T21:23:36.241Z,97841.63
2022-12-31T21:25:46.427Z,97841.63
2022-12-31T21:27:54.183Z,97839.28
2022-12-31T21:30:18.109Z,97840.31
2022-12-31T21:32:27.798Z,97845.13
2022-12-31T21:34:35.916Z,97840.88
2022-12-31T21:36:48.983Z,97841.06
2022-12-31T21:38:56.915Z,97842.03
2022-12-31T21:41:05.178Z,97846.81
2022-12-31T21:43:12.979Z,97841.25
2022-12-31T21:45:20.814Z,97848.59
2022-12-31T21:47:47.510Z,97847.28
2022-12-31T21:49:56.288Z,97852.19
2022-12-31T21:52:19.472Z,97846.13
2022-12-31T21:54:39.756Z,97850.06
2022-12-31T21:56:47.509Z,97858.72
2022-12-31T21:59:09.815Z,97866.78
2022-12-31T22:01:35.081Z,97863.94
2022-12-31T22:03:43.047Z,97864.66
2022-12-31T22:05:53.833Z,97868.53
2022-12-31T22:08:04.257Z,97867.34
2022-12-31T22:10:12.589Z,97868.16
2022-12-31T22:12:20.433Z,97868.34
2022-12-31T22:14:28.388Z,97870.25
2022-12-31T22:16:36.337Z,97871.53
2022-12-31T22:18:45.488Z,97870.97
2022-12-31T22:21:02.742Z,97879.47
2022-12-31T22:23:13.307Z,97881.47
2022-12-31T22:25:21.314Z,97877.66
2022-12-31T22:27:30.123Z,97873.78
2022-12-31T22:29:37.983Z,97873.78
2022-12-31T22:31:45.889Z,97877.47
2022-12-31T22:33:53.824Z,97876.44
2022-12-31T22:36:07.162Z,97888.09
2022-12-31T22:38:17.614Z,97892.25
2022-12-31T22:40:25.367Z,97891.72
2022-12-31T22:42:33.230Z,97889.56
2022-12-31T22:44:41.088Z,97893.81
2022-12-31T22:46:49.367Z,97896.09
2022-12-31T22:49:00.361Z,97902.59
2022-12-31T22:51:08.948Z,97909.13
2022-12-31T22:53:19.367Z,97907.41
2022-12-31T22:55:27.183Z,97912.34
2022-12-31T22:57:35.065Z,97919.56
2022-12-31T22:59:42.911Z,97918.16
2022-12-31T23:01:50.756Z,97916.34
2022-12-31T23:03:58.893Z,97915.97
2022-12-31T23:06:06.983Z,97906.03
2022-12-31T23:08:22.231Z,97904.28
2022-12-31T23:10:46.215Z,97904.59
2022-12-31T23:12:54.089Z,97915.72
2022-12-31T23:15:14.351Z,97913.06
2022-12-31T23:17:37.123Z,97919.84
2022-12-31T23:19:57.349Z,97921.84
2022-12-31T23:22:17.585Z,97922.25
2022-12-31T23:24:26.689Z,97925.06
2022-12-31T23:26:37.270Z,97920.81
2022-12-31T23:28:45.114Z,97929.44
2022-12-31T23:30:53.770Z,97929.94
2022-12-31T23:33:01.675Z,97923.47
2022-12-31T23:35:10.494Z,97926.88
2022-12-31T23:37:18.913Z,97927.94
2022-12-31T23:39:26.769Z,97923.41
2022-12-31T23:41:37.587Z,97924.25
2022-12-31T23:43:45.528Z,97927.69
2022-12-31T23:45:53.885Z,97927.97
2022-12-31T23:48:02.109Z,97925.88
2022-12-31T23:50:11.313Z,97928.25
2022-12-31T23:52:19.057Z,97933.06
2022-12-31T23:54:26.903Z,97930.84
2022-12-31T23:56:37.463Z,97934.72
2022-12-31T23:58:45.479Z,97929.06
